Time;durP1;ratioP1;P1;durP2;ratioP2;P2;SDS_P1;SDS_P2;PMS_P1;PMS_P2;Temp;Humidity;BMP_temperature;BMP_pressure;BME280_temperature;BME280_humidity;BME280_pressure;Samples;Min_cycle;Max_cycle;Signal;HPM_P1;HPM_P2
2024/03/29 00:01:35;;;;;;;4.13;1.87;;;;;;;11.12;40.71;95798.03;5032374;28;20239;-70
2024/03/29 00:04:00;;;;;;;2.27;1.83;;;;;;;11.18;40.48;95799.09;5031533;28;20290;-69
2024/03/29 00:06:26;;;;;;;4.77;2.00;;;;;;;11.07;40.69;95790.75;5035008;28;20215;-70
2024/03/29 00:08:51;;;;;;;3.90;2.20;;;;;;;11.14;40.72;95782.94;5030843;28;20221;-71
2024/03/29 00:11:17;;;;;;;3.17;1.80;;;;;;;11.18;40.53;95778.94;5036381;28;20769;-70
2024/03/29 00:13:42;;;;;;;2.53;1.90;;;;;;;11.18;40.67;95771.06;5032444;28;20207;-70
2024/03/29 00:16:08;;;;;;;3.40;1.97;;;;;;;11.19;40.60;95762.22;5032088;28;20218;-70
2024/03/29 00:18:33;;;;;;;4.30;2.00;;;;;;;11.24;40.58;95758.19;5037504;28;20214;-71
2024/03/29 00:20:59;;;;;;;4.03;2.30;;;;;;;11.26;40.68;95757.00;5041408;28;20274;-71
2024/03/29 00:23:24;;;;;;;2.87;1.90;;;;;;;11.25;40.69;95749.31;5033620;28;20700;-70
2024/03/29 00:25:51;;;;;;;2.50;1.90;;;;;;;11.18;40.64;95744.88;5040123;28;20183;-70
2024/03/29 00:28:16;;;;;;;2.90;2.00;;;;;;;11.13;40.80;95736.75;5033056;28;20192;-70
2024/03/29 00:30:42;;;;;;;3.70;1.93;;;;;;;11.16;40.90;95735.53;5031993;28;20419;-70
2024/03/29 00:33:07;;;;;;;4.63;2.10;;;;;;;11.15;40.78;95720.84;5032320;28;20287;-70
2024/03/29 00:35:33;;;;;;;2.03;1.70;;;;;;;11.19;40.70;95707.16;5031698;28;20724;-70
2024/03/29 00:37:58;;;;;;;5.60;1.83;;;;;;;11.17;40.81;95706.53;5039508;28;20191;-71
2024/03/29 00:40:24;;;;;;;2.80;1.63;;;;;;;11.08;40.75;95686.72;5032532;28;20866;-71
2024/03/29 00:42:49;;;;;;;4.00;1.70;;;;;;;11.15;40.82;95687.56;5032003;28;20625;-70
2024/03/29 00:45:15;;;;;;;4.67;2.03;;;;;;;11.18;40.68;95676.69;5033909;28;20180;-71
2024/03/29 00:47:40;;;;;;;2.00;1.80;;;;;;;11.19;41.01;95667.81;5027570;28;20279;-71
2024/03/29 00:50:09;;;;;;;6.80;2.00;;;;;;;11.23;40.80;95673.47;5047891;28;20274;-70
2024/03/29 00:52:34;;;;;;;3.77;1.80;;;;;;;11.28;40.82;95670.28;5031277;28;20196;-72
2024/03/29 00:55:00;;;;;;;2.60;2.00;;;;;;;11.31;40.93;95675.94;5039750;28;20449;-70
2024/03/29 00:57:25;;;;;;;3.00;2.00;;;;;;;11.34;40.79;95691.28;5046298;28;20207;-71
2024/03/29 00:59:51;;;;;;;2.37;1.50;;;;;;;11.44;40.51;95682.25;5041404;28;20290;-69
2024/03/29 01:02:16;;;;;;;2.90;1.97;;;;;;;11.43;40.45;95681.44;5030400;28;20242;-71
2024/03/29 01:04:42;;;;;;;2.57;1.70;;;;;;;11.37;40.55;95690.06;5032393;28;20199;-70
2024/03/29 01:07:07;;;;;;;3.70;1.70;;;;;;;11.33;40.98;95699.34;5030786;28;20567;-69
2024/03/29 01:09:33;;;;;;;3.63;1.90;;;;;;;11.15;41.29;95698.03;5032347;28;20198;-70
2024/03/29 01:11:58;;;;;;;2.87;1.97;;;;;;;11.20;40.97;95689.59;5030550;28;20188;-71
2024/03/29 01:14:24;;;;;;;2.60;1.73;;;;;;;11.25;40.85;95683.75;5030008;28;20637;-71
2024/03/29 01:16:50;;;;;;;4.17;2.20;;;;;;;11.36;41.19;95673.56;5040402;28;20196;-69
2024/03/29 01:19:15;;;;;;;2.93;2.20;;;;;;;11.37;41.21;95669.09;5054705;28;20189;-71
2024/03/29 01:21:40;;;;;;;2.40;1.60;;;;;;;11.45;40.86;95666.31;5034544;28;20183;-71
2024/03/29 01:24:06;;;;;;;5.73;1.77;;;;;;;11.49;40.86;95661.50;5039335;28;20230;-70
2024/03/29 01:26:31;;;;;;;2.37;2.10;;;;;;;11.49;40.97;95667.53;5033908;28;20233;-69
2024/03/29 01:28:57;;;;;;;5.93;1.83;;;;;;;11.40;41.31;95673.97;5038308;28;20652;-72
2024/03/29 01:31:25;;;;;;;3.27;2.20;;;;;;;11.39;41.08;95661.84;5032660;28;20186;-71
2024/03/29 01:33:51;;;;;;;3.13;2.03;;;;;;;11.44;41.32;95669.94;5040000;28;20206;-71
2024/03/29 01:36:16;;;;;;;1.93;1.60;;;;;;;11.50;40.92;95657.88;5038885;28;20430;-70
2024/03/29 01:38:45;;;;;;;2.20;1.60;;;;;;;11.46;40.86;95654.84;5032504;28;20180;-70
2024/03/29 01:41:10;;;;;;;2.80;1.90;;;;;;;11.49;40.91;95641.31;5038837;28;20214;-69
2024/03/29 01:43:36;;;;;;;2.67;1.93;;;;;;;11.41;41.18;95640.66;5033325;28;20881;-70
2024/03/29 01:46:01;;;;;;;3.20;2.00;;;;;;;11.37;41.28;95632.38;5029743;28;20266;-71
2024/03/29 01:48:27;;;;;;;2.80;1.77;;;;;;;11.34;41.06;95635.41;5027210;28;20241;-71
2024/03/29 01:50:55;;;;;;;3.17;1.63;;;;;;;11.41;41.01;95659.84;5028779;28;20179;-72
2024/03/29 01:53:21;;;;;;;4.67;2.03;;;;;;;11.42;40.94;95650.97;5045370;28;20261;-71
2024/03/29 01:55:47;;;;;;;2.17;1.50;;;;;;;11.49;41.07;95651.00;5039688;28;20414;-72
2024/03/29 01:58:14;;;;;;;5.53;1.87;;;;;;;11.51;41.11;95654.25;5041611;28;20426;-71
2024/03/29 02:00:44;;;;;;;2.83;1.23;;;;;;;11.37;41.21;95650.75;5031082;28;20199;-69
2024/03/29 02:03:12;;;;;;;2.80;1.60;;;;;;;11.35;40.99;95661.44;5032982;28;21098;-70
2024/03/29 02:05:40;;;;;;;1.60;1.20;;;;;;;11.29;41.35;95656.16;5027693;28;20409;-70
2024/03/29 02:08:07;;;;;;;2.93;1.33;;;;;;;11.29;41.14;95661.41;5032125;28;20427;-72
2024/03/29 02:10:34;;;;;;;2.23;1.30;;;;;;;11.31;41.16;95651.53;5031206;28;20431;-71
2024/03/29 02:12:59;;;;;;;2.80;1.60;;;;;;;11.17;41.32;95656.72;5029151;28;20536;-70
2024/03/29 02:15:25;;;;;;;1.50;1.30;;;;;;;11.24;41.14;95663.78;5037581;28;20485;-70
2024/03/29 02:17:51;;;;;;;2.50;1.20;;;;;;;11.29;41.07;95666.66;5038893;28;20179;-70
2024/03/29 02:20:16;;;;;;;4.20;1.90;;;;;;;11.30;41.01;95658.56;5042432;28;20229;-71
2024/03/29 02:22:50;;;;;;;2.90;1.10;;;;;;;11.39;40.72;95646.09;5040067;28;20245;-71
2024/03/29 02:25:16;;;;;;;2.20;1.50;;;;;;;11.43;40.42;95647.34;5040289;28;20179;-70
2024/03/29 02:27:42;;;;;;;1.80;1.23;;;;;;;11.41;40.60;95635.41;5033596;28;20422;-70
2024/03/29 02:30:07;;;;;;;2.50;1.33;;;;;;;11.48;40.39;95649.38;5044822;28;20175;-71
2024/03/29 02:32:33;;;;;;;1.60;1.07;;;;;;;11.31;40.84;95633.19;5042504;28;20431;-73
2024/03/29 02:34:59;;;;;;;1.37;1.17;;;;;;;11.44;40.65;95638.47;5048034;28;20187;-73
2024/03/29 02:37:24;;;;;;;1.67;1.30;;;;;;;11.55;40.47;95644.16;5038276;28;20507;-71
2024/03/29 02:39:49;;;;;;;2.60;1.63;;;;;;;11.67;40.46;95629.47;5038512;28;20195;-70
2024/03/29 02:42:15;;;;;;;2.43;1.70;;;;;;;11.72;40.45;95615.75;5049397;28;20262;-71
2024/03/29 02:44:41;;;;;;;2.90;1.57;;;;;;;11.74;40.14;95609.28;5030026;28;20176;-69
2024/03/29 02:47:06;;;;;;;1.67;1.10;;;;;;;11.76;40.26;95609.91;5031682;28;20202;-71
2024/03/29 02:49:32;;;;;;;1.23;1.10;;;;;;;11.79;40.18;95611.31;5041456;28;20172;-70
2024/03/29 02:51:57;;;;;;;1.47;1.27;;;;;;;11.83;40.13;95620.41;5041296;28;20222;-70
2024/03/29 02:54:22;;;;;;;1.20;1.10;;;;;;;11.78;40.31;95618.38;5040883;28;20199;-71
2024/03/29 02:56:48;;;;;;;1.60;1.20;;;;;;;11.75;40.73;95629.28;5034231;28;20714;-70
2024/03/29 02:59:13;;;;;;;1.57;1.30;;;;;;;11.78;40.50;95641.22;5044242;28;20190;-70
2024/03/29 03:01:40;;;;;;;2.30;1.40;;;;;;;11.75;40.27;95645.03;5042979;28;20199;-69
2024/03/29 03:04:05;;;;;;;1.50;1.10;;;;;;;11.83;39.94;95650.09;5036206;28;20587;-70
2024/03/29 03:06:31;;;;;;;2.30;1.40;;;;;;;11.83;40.08;95642.25;5033575;28;20422;-70
2024/03/29 03:11:41;;;;;;;1.20;1.10;;;;;;;11.79;40.56;95645.44;5037727;28;20297;-70
2024/03/29 03:14:06;;;;;;;1.23;1.13;;;;;;;11.80;40.27;95647.88;5037391;28;20502;-71
2024/03/29 03:16:32;;;;;;;2.33;1.50;;;;;;;11.66;40.68;95657.50;5034835;28;20195;-69
2024/03/29 03:18:57;;;;;;;2.10;1.00;;;;;;;11.71;40.92;95654.31;5033111;28;20214;-72
2024/03/29 03:21:23;;;;;;;1.80;1.20;;;;;;;11.68;40.77;95657.31;5032750;28;20273;-71
2024/03/29 03:23:49;;;;;;;3.00;0.90;;;;;;;11.67;40.42;95650.47;5043460;28;20195;-70
2024/03/29 03:26:14;;;;;;;2.17;1.17;;;;;;;11.70;40.76;95668.44;5049093;28;20460;-70
2024/03/29 03:28:40;;;;;;;4.53;1.50;;;;;;;11.77;40.41;95674.50;5034557;28;20202;-70
2024/03/29 03:31:07;;;;;;;1.97;1.20;;;;;;;11.78;40.45;95676.13;5043610;28;20656;-71
2024/03/29 03:33:32;;;;;;;1.50;1.10;;;;;;;11.80;40.39;95697.75;5030600;28;20196;-69
2024/03/29 03:35:58;;;;;;;1.60;1.30;;;;;;;11.90;40.72;95696.56;5018622;28;20463;-71
2024/03/29 03:38:23;;;;;;;1.90;1.20;;;;;;;11.99;40.94;95711.13;5022933;28;20179;-71
2024/03/29 03:40:49;;;;;;;1.40;1.10;;;;;;;12.02;40.40;95710.75;5028703;28;20681;-71
2024/03/29 03:43:14;;;;;;;1.87;1.10;;;;;;;12.06;40.58;95695.41;5035259;28;20199;-71
2024/03/29 03:45:40;;;;;;;1.90;1.20;;;;;;;12.02;40.61;95679.25;5034875;28;20187;-70
2024/03/29 03:48:09;;;;;;;2.13;1.30;;;;;;;11.98;41.58;95701.66;5032927;28;20180;-69
2024/03/29 03:50:34;;;;;;;1.20;1.10;;;;;;;11.97;41.63;95705.28;5039694;28;20534;-71
2024/03/29 03:53:00;;;;;;;2.50;1.17;;;;;;;11.93;40.99;95677.78;5036461;28;20545;-70
2024/03/29 03:55:26;;;;;;;1.50;1.20;;;;;;;11.98;40.89;95664.88;5038076;28;20187;-71
2024/03/29 03:57:52;;;;;;;1.10;0.93;;;;;;;12.04;41.35;95658.84;5031946;28;20175;-71
2024/03/29 04:00:19;;;;;;;2.40;0.90;;;;;;;12.12;40.97;95652.63;5041852;28;20207;-71
2024/03/29 04:02:52;;;;;;;1.10;0.70;;;;;;;12.09;40.94;95639.88;5041213;28;20438;-72
2024/03/29 04:05:18;;;;;;;1.80;1.13;;;;;;;12.07;40.66;95632.22;5037634;28;20430;-70
2024/03/29 04:07:43;;;;;;;3.63;0.90;;;;;;;12.08;40.67;95615.44;5028316;28;20543;-69
2024/03/29 04:10:09;;;;;;;1.00;0.80;;;;;;;12.13;41.02;95605.13;5026022;28;20528;-71
2024/03/29 04:12:34;;;;;;;1.60;1.07;;;;;;;12.20;41.09;95606.97;5038725;28;20204;-70
2024/03/29 04:15:00;;;;;;;1.60;1.13;;;;;;;12.23;41.29;95589.00;5043464;28;20179;-71
2024/03/29 04:17:25;;;;;;;1.83;1.20;;;;;;;12.23;41.31;95583.72;5032616;28;20526;-70
2024/03/29 04:19:51;;;;;;;1.67;1.00;;;;;;;12.24;41.35;95593.22;5032807;28;20676;-71
2024/03/29 04:22:16;;;;;;;4.10;1.30;;;;;;;12.27;41.50;95598.09;5032373;28;20329;-68
2024/03/29 04:24:42;;;;;;;1.17;1.00;;;;;;;12.30;40.70;95610.00;5035800;28;20192;-70
2024/03/29 04:27:07;;;;;;;2.53;2.33;;;;;;;12.26;41.31;95609.59;5039733;28;20207;-71
2024/03/29 04:29:33;;;;;;;1.80;1.70;;;;;;;12.23;41.45;95640.69;5038310;28;20180;-71
2024/03/29 04:31:58;;;;;;;1.10;1.00;;;;;;;12.17;39.75;95636.25;5033286;28;20176;-71
2024/03/29 04:34:24;;;;;;;1.47;0.70;;;;;;;12.16;38.96;95655.63;5032158;28;20254;-71
2024/03/29 04:36:49;;;;;;;1.10;0.87;;;;;;;12.21;39.22;95661.13;5034426;28;20601;-69
2024/03/29 04:39:15;;;;;;;1.23;1.03;;;;;;;12.25;38.97;95654.44;5031969;28;20183;-71
2024/03/29 04:41:40;;;;;;;1.40;1.00;;;;;;;12.28;39.99;95669.81;5042210;28;20203;-71
2024/03/29 04:44:07;;;;;;;1.70;1.10;;;;;;;12.21;40.37;95661.13;5031643;28;20870;-71
2024/03/29 04:46:33;;;;;;;1.00;0.83;;;;;;;12.19;39.46;95642.13;5040804;28;20249;-70
2024/03/29 04:48:58;;;;;;;1.00;0.70;;;;;;;12.26;39.86;95658.69;5039312;28;20456;-70
2024/03/29 04:51:24;;;;;;;2.70;1.00;;;;;;;12.28;39.98;95670.63;5037320;28;20228;-70
2024/03/29 04:53:49;;;;;;;1.47;0.83;;;;;;;12.29;40.45;95640.69;5046475;28;20217;-69
2024/03/29 04:56:15;;;;;;;1.20;0.90;;;;;;;12.33;40.41;95630.63;5034919;28;20745;-70
2024/03/29 04:58:41;;;;;;;2.13;1.00;;;;;;;12.31;41.00;95634.44;5035608;28;20177;-69
2024/03/29 05:01:07;;;;;;;1.30;0.90;;;;;;;12.36;40.63;95621.53;5040057;28;20207;-69
2024/03/29 05:03:32;;;;;;;3.00;1.00;;;;;;;12.41;40.44;95592.84;5030118;28;20998;-70
2024/03/29 05:05:58;;;;;;;1.20;1.00;;;;;;;12.44;40.81;95606.38;5031154;28;20172;-72
2024/03/29 05:08:23;;;;;;;1.27;1.03;;;;;;;12.50;40.86;95614.44;5031521;28;20603;-70
2024/03/29 05:10:50;;;;;;;1.40;0.90;;;;;;;12.54;40.90;95611.19;5034088;28;20249;-70
2024/03/29 05:13:16;;;;;;;2.17;0.60;;;;;;;12.52;40.20;95617.66;5038701;28;20226;-71
2024/03/29 05:15:41;;;;;;;1.10;0.97;;;;;;;12.53;40.11;95614.84;5031947;28;20461;-70
2024/03/29 05:18:07;;;;;;;2.47;0.90;;;;;;;12.55;40.46;95617.25;5039401;28;20187;-71
2024/03/29 05:20:32;;;;;;;0.93;0.83;;;;;;;12.52;40.17;95618.50;5013123;28;20200;-70
2024/03/29 05:22:58;;;;;;;1.00;0.80;;;;;;;12.54;39.44;95618.28;5029826;28;20286;-70
2024/03/29 05:25:24;;;;;;;5.43;1.00;;;;;;;12.55;39.46;95625.16;5031445;28;20318;-72
2024/03/29 05:27:50;;;;;;;1.10;0.70;;;;;;;12.58;38.83;95627.38;5032002;28;20496;-72
2024/03/29 05:30:16;;;;;;;2.00;0.87;;;;;;;12.56;39.30;95639.91;5033497;28;20184;-71
2024/03/29 05:32:42;;;;;;;1.50;0.97;;;;;;;12.55;39.09;95627.78;5031198;28;20446;-70
2024/03/29 05:35:08;;;;;;;1.10;0.80;;;;;;;12.57;39.02;95620.50;5037008;28;20426;-70
2024/03/29 05:37:35;;;;;;;3.63;1.07;;;;;;;12.56;39.48;95632.81;5033568;28;20411;-70
2024/03/29 05:40:03;;;;;;;1.57;0.70;;;;;;;12.57;40.20;95634.44;5025726;28;20454;-71
2024/03/29 05:42:30;;;;;;;2.23;0.80;;;;;;;12.60;39.08;95638.50;5037691;28;20520;-69
2024/03/29 05:44:56;;;;;;;1.20;0.90;;;;;;;12.68;38.61;95630.41;5030304;28;20419;-70
2024/03/29 05:47:21;;;;;;;1.13;0.90;;;;;;;12.63;38.24;95635.44;5035475;28;20410;-71
2024/03/29 05:49:48;;;;;;;1.40;1.03;;;;;;;12.59;38.46;95650.03;5035457;28;20179;-71
2024/03/29 05:52:13;;;;;;;1.00;0.70;;;;;;;12.67;38.10;95636.66;5047594;28;20180;-71
2024/03/29 05:54:45;;;;;;;1.30;0.80;;;;;;;12.68;38.00;95648.78;5032925;28;20533;-70
2024/03/29 05:57:11;;;;;;;1.37;1.00;;;;;;;12.68;37.02;95661.94;5025700;28;20188;-70
2024/03/29 05:59:37;;;;;;;1.00;0.80;;;;;;;12.51;37.31;95653.66;5032931;28;20502;-71
2024/03/29 06:02:03;;;;;;;1.30;0.80;;;;;;;12.57;37.39;95657.28;5034616;28;20234;-70
2024/03/29 06:04:32;;;;;;;1.50;0.90;;;;;;;12.65;37.34;95654.44;5045546;28;20442;-69
2024/03/29 06:07:01;;;;;;;2.30;0.97;;;;;;;12.75;37.16;95652.22;5039814;28;20259;-68
2024/03/29 06:09:27;;;;;;;7.30;1.00;;;;;;;12.83;37.14;95645.16;5036718;28;20428;-71
2024/03/29 06:11:56;;;;;;;2.60;0.90;;;;;;;12.84;37.01;95649.38;5046103;28;20462;-71
2024/03/29 06:17:22;;;;;;;1.50;0.90;;;;;;;12.89;37.48;95624.09;5038453;28;20466;-71
2024/03/29 06:19:48;;;;;;;1.20;0.87;;;;;;;12.79;37.88;95639.47;5041715;28;20460;-70
2024/03/29 06:22:13;;;;;;;1.20;0.90;;;;;;;12.89;37.70;95639.06;5037914;28;20951;-70
2024/03/29 06:24:40;;;;;;;1.10;0.90;;;;;;;12.84;37.63;95644.94;5034315;28;20302;-71
2024/03/29 06:27:05;;;;;;;1.47;0.90;;;;;;;12.95;37.62;95642.69;5033230;28;20270;-70
2024/03/29 06:29:31;;;;;;;1.10;1.00;;;;;;;13.00;37.33;95650.78;5047951;28;20425;-71
2024/03/29 06:31:57;;;;;;;1.43;0.70;;;;;;;12.81;37.30;95652.41;5034002;28;20190;-72
2024/03/29 06:34:22;;;;;;;0.97;0.77;;;;;;;12.71;37.34;95658.91;5034483;28;20477;-71
2024/03/29 06:36:48;;;;;;;1.40;0.93;;;;;;;12.72;37.22;95655.28;5048678;28;20721;-70
2024/03/29 06:39:13;;;;;;;1.10;0.83;;;;;;;12.86;37.35;95657.84;5037614;28;20183;-70
2024/03/29 06:41:39;;;;;;;1.20;0.90;;;;;;;12.94;37.36;95652.41;5032264;28;20226;-71
2024/03/29 06:44:04;;;;;;;1.40;0.90;;;;;;;13.04;36.98;95652.78;5017754;28;20218;-70
2024/03/29 06:46:30;;;;;;;1.27;1.00;;;;;;;13.16;36.90;95652.16;5035834;28;20187;-71
2024/03/29 06:48:55;;;;;;;1.30;1.00;;;;;;;13.25;37.27;95643.00;5033923;28;20184;-72
2024/03/29 06:51:21;;;;;;;1.20;0.70;;;;;;;13.24;36.34;95641.38;5033263;28;20168;-71
2024/03/29 06:53:46;;;;;;;1.10;0.80;;;;;;;13.24;36.69;95630.06;5034229;28;20196;-70
2024/03/29 06:56:11;;;;;;;1.27;0.80;;;;;;;13.29;36.83;95638.94;5032894;28;20720;-70
2024/03/29 06:58:37;;;;;;;1.20;0.77;;;;;;;13.37;37.26;95632.66;5031701;28;20187;-70
2024/03/29 07:01:02;;;;;;;1.60;1.03;;;;;;;13.41;36.94;95635.72;5057003;28;20729;-71
2024/03/29 07:03:28;;;;;;;1.30;1.10;;;;;;;13.43;36.97;95638.94;5054593;28;20204;-72
2024/03/29 07:05:53;;;;;;;2.20;1.13;;;;;;;13.50;37.48;95631.81;5042089;28;20517;-70
2024/03/29 07:08:19;;;;;;;1.30;0.90;;;;;;;13.54;37.00;95625.13;5033164;28;20218;-69
2024/03/29 07:10:44;;;;;;;1.50;1.17;;;;;;;13.56;37.47;95628.34;5035089;28;20180;-69
2024/03/29 07:13:10;;;;;;;5.57;1.13;;;;;;;13.58;37.38;95618.44;5036514;28;20202;-69
2024/03/29 07:15:36;;;;;;;1.40;1.30;;;;;;;13.63;37.41;95617.81;5034175;28;20191;-68
2024/03/29 07:18:05;;;;;;;2.30;1.50;;;;;;;13.66;37.58;95631.34;5022873;28;20234;-71
2024/03/29 07:20:30;;;;;;;1.63;1.30;;;;;;;13.64;38.06;95622.06;5036223;28;20295;-70
2024/03/29 07:22:56;;;;;;;1.43;1.20;;;;;;;13.62;37.75;95642.50;5034534;28;20876;-71
2024/03/29 07:25:21;;;;;;;1.20;1.10;;;;;;;13.63;38.01;95633.59;5041412;28;20618;-71
2024/03/29 07:27:47;;;;;;;1.70;1.20;;;;;;;13.61;37.67;95630.34;5032212;28;20241;-70
2024/03/29 07:30:13;;;;;;;1.60;0.93;;;;;;;13.59;38.31;95664.78;5034950;28;20174;-71
2024/03/29 07:32:39;;;;;;;1.43;1.17;;;;;;;13.57;39.00;95664.19;5035201;28;20180;-71
2024/03/29 07:35:05;;;;;;;1.60;1.50;;;;;;;13.53;40.11;95655.09;5041987;28;20426;-70
2024/03/29 07:37:30;;;;;;;1.37;1.07;;;;;;;13.41;41.64;95667.28;5033974;28;20188;-70
2024/03/29 07:39:56;;;;;;;1.80;1.33;;;;;;;13.37;42.92;95661.59;5032225;28;20613;-71
2024/03/29 07:42:22;;;;;;;4.10;1.40;;;;;;;13.36;44.37;95655.50;5031737;28;20192;-71
2024/03/29 07:44:47;;;;;;;1.33;1.10;;;;;;;13.32;44.81;95659.59;5048323;28;20172;-70
2024/03/29 07:47:14;;;;;;;1.83;1.40;;;;;;;13.16;46.41;95670.56;5043777;28;20422;-70
2024/03/29 07:49:39;;;;;;;1.33;1.20;;;;;;;13.17;48.51;95672.19;5037407;28;20187;-70
2024/03/29 07:52:06;;;;;;;3.30;1.70;;;;;;;13.14;49.46;95696.25;5041784;28;21799;-70
2024/03/29 07:54:32;;;;;;;2.60;2.07;;;;;;;12.99;49.86;95713.06;5036345;28;20572;-69
2024/03/29 07:56:57;;;;;;;2.93;1.53;;;;;;;12.84;48.99;95725.63;5038966;28;20434;-71
2024/03/29 07:59:23;;;;;;;6.73;1.53;;;;;;;12.79;48.26;95728.03;5033770;28;20426;-70
2024/03/29 08:01:48;;;;;;;3.40;1.33;;;;;;;12.78;48.03;95747.44;5046729;28;20180;-69
2024/03/29 08:04:14;;;;;;;3.10;1.57;;;;;;;12.82;48.49;95748.69;5041248;28;20364;-69
2024/03/29 08:06:39;;;;;;;7.83;1.40;;;;;;;12.79;48.85;95754.31;5031338;28;20263;-69
2024/03/29 08:09:05;;;;;;;3.10;1.10;;;;;;;12.92;48.91;95754.34;5042357;28;20179;-69
2024/03/29 08:11:31;;;;;;;3.40;1.40;;;;;;;12.87;49.83;95759.38;5038864;28;20791;-69
2024/03/29 08:13:56;;;;;;;4.03;1.20;;;;;;;13.01;48.68;95755.75;5038830;28;20212;-71
2024/03/29 08:16:22;;;;;;;2.73;1.30;;;;;;;13.06;48.86;95761.22;5038086;28;20270;-71
2024/03/29 08:18:47;;;;;;;7.40;1.53;;;;;;;13.15;49.43;95763.63;5034481;28;20675;-68
2024/03/29 08:21:13;;;;;;;1.97;1.30;;;;;;;13.15;49.78;95767.06;5035479;28;20776;-70
2024/03/29 08:23:46;;;;;;;1.30;1.17;;;;;;;13.18;50.08;95771.13;5032387;28;20195;-70
2024/03/29 08:26:12;;;;;;;1.83;1.53;;;;;;;13.11;50.37;95773.75;5047361;28;20517;-71
2024/03/29 08:28:37;;;;;;;1.80;1.40;;;;;;;13.17;50.08;95778.19;5036638;28;21140;-70
2024/03/29 08:31:05;;;;;;;2.87;1.17;;;;;;;13.25;50.34;95779.78;5036032;28;20561;-70
2024/03/29 08:33:31;;;;;;;5.03;1.30;;;;;;;13.06;51.12;95782.25;5032190;28;20195;-70
2024/03/29 08:35:57;;;;;;;1.77;1.23;;;;;;;13.21;51.08;95786.50;5045874;28;20795;-70
2024/03/29 08:38:23;;;;;;;2.33;1.30;;;;;;;13.23;51.43;95792.38;5039155;28;20184;-70
2024/03/29 08:40:49;;;;;;;1.43;1.10;;;;;;;13.23;52.20;95781.84;5045890;28;20241;-70
2024/03/29 08:43:18;;;;;;;2.60;1.60;;;;;;;13.28;52.98;95779.41;5033466;28;20434;-68
2024/03/29 08:45:46;;;;;;;1.57;1.13;;;;;;;13.21;54.02;95789.91;5042394;28;20793;-70
2024/03/29 08:48:12;;;;;;;1.47;1.20;;;;;;;13.16;54.71;95783.66;5036877;28;20452;-70
2024/03/29 08:50:38;;;;;;;4.83;2.37;;;;;;;13.24;55.43;95778.19;5038721;28;20419;-71
2024/03/29 08:53:03;;;;;;;3.50;2.20;;;;;;;13.21;55.92;95782.03;5034139;28;20207;-71
2024/03/29 08:55:30;;;;;;;2.83;2.13;;;;;;;13.24;56.69;95786.06;5048275;28;20196;-71
2024/03/29 08:57:59;;;;;;;2.77;1.93;;;;;;;13.18;57.30;95779.81;5035280;28;20751;-70
2024/03/29 09:00:26;;;;;;;2.07;1.70;;;;;;;13.22;57.16;95777.59;5037526;28;21253;-70
2024/03/29 09:02:51;;;;;;;4.23;1.97;;;;;;;13.29;57.25;95770.50;5029733;28;20446;-70
2024/03/29 09:05:16;;;;;;;3.30;1.90;;;;;;;13.39;57.54;95769.25;5032370;28;20459;-70
2024/03/29 09:07:42;;;;;;;4.57;1.67;;;;;;;13.42;58.29;95766.25;5040124;28;20179;-70
2024/03/29 09:10:07;;;;;;;17.80;14.10;;;;;;;13.46;59.07;95749.84;5030890;28;20183;-70
2024/03/29 09:12:33;;;;;;;26.57;22.67;;;;;;;13.50;59.19;95760.75;5033842;28;20233;-71
2024/03/29 09:14:59;;;;;;;12.93;10.10;;;;;;;13.44;59.56;95766.88;5032861;28;20234;-70
2024/03/29 09:17:25;;;;;;;9.50;7.67;;;;;;;13.47;60.17;95755.94;5031194;28;20194;-70
2024/03/29 09:19:54;;;;;;;9.80;5.30;;;;;;;13.48;60.04;95768.06;5029658;28;20716;-70
2024/03/29 09:22:20;;;;;;;4.50;3.80;;;;;;;13.51;60.36;95757.94;5029384;28;20529;-70
2024/03/29 09:24:46;;;;;;;11.73;5.30;;;;;;;13.59;60.43;95756.09;5041908;28;20561;-71
2024/03/29 09:27:11;;;;;;;14.30;8.77;;;;;;;13.58;60.47;95763.19;5030895;28;20187;-70
2024/03/29 09:29:37;;;;;;;5.43;4.90;;;;;;;13.66;60.79;95781.38;5041990;28;20532;-70
2024/03/29 09:32:02;;;;;;;4.50;3.43;;;;;;;13.64;61.21;95793.16;5031984;28;20209;-70
2024/03/29 09:34:28;;;;;;;2.40;2.10;;;;;;;13.66;61.54;95801.66;5029507;28;20203;-70
2024/03/29 09:36:54;;;;;;;4.00;2.10;;;;;;;13.71;61.74;95798.41;5028414;28;20195;-70
2024/03/29 09:39:19;;;;;;;5.50;3.70;;;;;;;13.72;61.46;95790.28;5029617;28;20802;-69
2024/03/29 09:41:45;;;;;;;3.67;2.87;;;;;;;13.78;61.59;95771.03;5037996;28;20179;-70
2024/03/29 09:44:11;;;;;;;5.50;2.53;;;;;;;13.91;61.46;95750.94;5029179;28;20203;-70
2024/03/29 09:46:40;;;;;;;4.90;2.10;;;;;;;14.05;61.22;95734.03;5037523;28;20184;-70
2024/03/29 09:49:08;;;;;;;2.37;1.93;;;;;;;14.20;61.09;95717.97;5044127;28;20243;-70
2024/03/29 09:51:34;;;;;;;3.70;1.97;;;;;;;14.34;61.12;95700.25;5031169;28;20422;-70
2024/03/29 09:54:00;;;;;;;5.47;2.37;;;;;;;14.43;61.58;95714.78;5043594;28;20448;-69
2024/03/29 09:56:26;;;;;;;2.63;2.43;;;;;;;14.57;61.65;95718.13;5028660;28;20188;-70
2024/03/29 09:58:52;;;;;;;3.93;1.97;;;;;;;14.68;61.55;95718.50;5030173;28;20466;-70
2024/03/29 10:01:18;;;;;;;2.17;1.97;;;;;;;14.73;61.05;95714.19;5036266;28;20569;-70
2024/03/29 10:03:45;;;;;;;2.23;1.60;;;;;;;14.82;60.80;95721.81;5027612;28;20203;-70
2024/03/29 10:06:14;;;;;;;4.90;2.50;;;;;;;14.90;60.94;95727.63;5035422;28;20188;-70
2024/03/29 10:08:39;;;;;;;5.37;3.00;;;;;;;14.94;61.33;95733.28;5028488;28;20466;-70
2024/03/29 10:11:05;;;;;;;6.60;4.53;;;;;;;15.00;60.64;95729.81;5038017;28;20561;-70
2024/03/29 10:13:30;;;;;;;11.20;5.97;;;;;;;15.05;60.75;95737.06;5029295;28;20211;-70
2024/03/29 10:15:56;;;;;;;4.37;1.83;;;;;;;15.10;59.26;95723.22;5030141;28;20269;-70
2024/03/29 10:18:25;;;;;;;2.87;1.97;;;;;;;15.38;58.49;95725.38;5036847;28;20179;-69
2024/03/29 10:21:11;;;;;;;2.17;1.40;;;;;;;15.75;57.32;95716.66;5029541;28;20457;-70
2024/03/29 10:23:36;;;;;;;7.20;1.60;;;;;;;16.03;55.73;95717.97;5047315;28;20514;-70
2024/03/29 10:26:03;;;;;;;2.50;1.73;;;;;;;16.20;55.18;95707.59;5043883;28;20431;-70
2024/03/29 10:28:34;;;;;;;1.63;1.40;;;;;;;16.27;54.67;95701.19;5038124;28;20191;-71
2024/03/29 10:31:00;;;;;;;2.47;1.80;;;;;;;16.34;54.91;95703.72;5037950;28;20890;-71
2024/03/29 10:33:32;;;;;;;3.17;1.73;;;;;;;16.37;54.95;95705.94;5034982;28;20466;-70
2024/03/29 10:36:05;;;;;;;3.20;1.57;;;;;;;16.47;54.86;95707.22;5043305;28;20494;-70
2024/03/29 10:38:31;;;;;;;1.93;1.60;;;;;;;16.49;54.33;95726.31;5021974;28;20429;-70
2024/03/29 10:40:57;;;;;;;4.90;2.50;;;;;;;16.56;54.27;95717.25;5042306;28;20462;-71
2024/03/29 10:43:24;;;;;;;3.10;1.93;;;;;;;16.66;54.28;95711.38;5029710;28;20246;-71
2024/03/29 10:45:50;;;;;;;3.07;1.53;;;;;;;16.57;52.75;95718.03;5016103;28;20185;-70
2024/03/29 10:48:16;;;;;;;1.40;1.30;;;;;;;16.55;52.16;95710.34;5037005;28;20422;-70
2024/03/29 10:50:43;;;;;;;2.67;1.57;;;;;;;16.55;52.30;95713.00;5029380;28;20468;-70
2024/03/29 10:53:11;;;;;;;2.70;1.43;;;;;;;16.57;52.43;95708.25;5032254;28;20207;-70
2024/03/29 10:55:37;;;;;;;2.20;1.30;;;;;;;16.61;52.03;95716.56;5046505;28;20417;-71
2024/03/29 10:58:04;;;;;;;1.90;1.70;;;;;;;16.71;51.91;95719.47;5045420;28;20850;-71
2024/03/29 11:00:38;;;;;;;1.43;1.33;;;;;;;16.80;51.43;95725.22;5039997;28;20799;-71
2024/03/29 11:03:04;;;;;;;1.80;1.63;;;;;;;16.94;51.28;95732.94;5036597;28;20449;-69
2024/03/29 11:05:33;;;;;;;2.53;1.70;;;;;;;17.02;50.38;95714.91;5035360;28;20500;-70
2024/03/29 11:08:02;;;;;;;7.30;1.60;;;;;;;17.09;51.28;95714.00;5044662;28;20652;-70
2024/03/29 11:10:30;;;;;;;1.90;1.70;;;;;;;17.14;51.32;95706.97;5033391;28;20414;-72
2024/03/29 11:12:56;;;;;;;3.03;2.10;;;;;;;17.18;50.57;95696.72;5031984;28;20438;-71
2024/03/29 11:15:28;;;;;;;4.47;2.17;;;;;;;17.25;50.85;95701.91;5033529;28;20438;-71
2024/03/29 11:17:55;;;;;;;1.93;1.67;;;;;;;17.25;50.51;95704.56;5040656;28;20723;-70
2024/03/29 11:20:33;;;;;;;2.03;1.47;;;;;;;17.26;49.95;95709.63;5036700;28;20461;-70
2024/03/29 11:23:05;;;;;;;5.17;1.60;;;;;;;17.31;50.27;95709.72;5051470;28;20560;-71
2024/03/29 11:25:44;;;;;;;5.70;1.77;;;;;;;17.43;50.85;95708.91;5044159;28;20979;-70
2024/03/29 11:28:17;;;;;;;2.40;1.60;;;;;;;17.49;49.66;95703.50;5051141;28;20419;-70
2024/03/29 11:30:45;;;;;;;1.97;1.53;;;;;;;17.53;49.53;95693.22;5050100;28;20414;-70
2024/03/29 11:33:43;;;;;;;4.07;2.07;;;;;;;17.64;50.15;95695.03;5038059;28;20484;-71
2024/03/29 11:36:21;;;;;;;2.60;1.93;;;;;;;17.62;48.58;95685.72;5043492;28;20414;-71